sensor_id;sensor_type;location;lat;lon;timestamp;pressure;altitude;pressure_sealevel;temperature;humidity
18504;BME280;9381;54.244;10.074;2022-10-16T00:02:36;100286.19;;;14.48;100.00
18504;BME280;9381;54.244;10.074;2022-10-16T00:07:36;100295.16;;;14.49;100.00
18504;BME280;9381;54.244;10.074;2022-10-16T00:12:36;100292.88;;;14.41;100.00
18504;BME280;9381;54.244;10.074;2022-10-16T00:17:37;100303.28;;;14.27;100.00
18504;BME280;9381;54.244;10.074;2022-10-16T00:22:37;100300.00;;;14.25;100.00
18504;BME280;9381;54.244;10.074;2022-10-16T00:27:37;100303.88;;;14.29;100.00
18504;BME280;9381;54.244;10.074;2022-10-16T00:32:37;100302.06;;;14.18;100.00
18504;BME280;9381;54.244;10.074;2022-10-16T00:37:38;100304.34;;;14.26;100.00
18504;BME280;9381;54.244;10.074;2022-10-16T00:42:38;100311.94;;;14.08;100.00
18504;BME280;9381;54.244;10.074;2022-10-16T00:47:41;100311.22;;;14.12;100.00
18504;BME280;9381;54.244;10.074;2022-10-16T00:52:47;100309.28;;;14.13;100.00
18504;BME280;9381;54.244;10.074;2022-10-16T00:57:50;100314.50;;;14.14;100.00
18504;BME280;9381;54.244;10.074;2022-10-16T01:02:56;100315.06;;;14.16;100.00
18504;BME280;9381;54.244;10.074;2022-10-16T01:08:06;100327.13;;;14.20;100.00
18504;BME280;9381;54.244;10.074;2022-10-16T01:13:16;100330.72;;;14.09;100.00
18504;BME280;9381;54.244;10.074;2022-10-16T01:18:28;100331.56;;;14.26;100.00
18504;BME280;9381;54.244;10.074;2022-10-16T01:29:18;100340.13;;;14.18;100.00
18504;BME280;9381;54.244;10.074;2022-10-16T01:34:25;100338.50;;;14.17;100.00
18504;BME280;9381;54.244;10.074;2022-10-16T01:39:34;100339.78;;;14.15;100.00
18504;BME280;9381;54.244;10.074;2022-10-16T01:44:36;100341.31;;;14.22;100.00
18504;BME280;9381;54.244;10.074;2022-10-16T01:49:38;100334.69;;;14.18;100.00
18504;BME280;9381;54.244;10.074;2022-10-16T01:54:42;100344.50;;;14.19;100.00
18504;BME280;9381;54.244;10.074;2022-10-16T01:59:47;100332.88;;;14.24;100.00
18504;BME280;9381;54.244;10.074;2022-10-16T02:04:53;100320.16;;;14.13;100.00
18504;BME280;9381;54.244;10.074;2022-10-16T02:09:54;100328.09;;;14.14;100.00
18504;BME280;9381;54.244;10.074;2022-10-16T02:14:55;100334.19;;;14.05;100.00
18504;BME280;9381;54.244;10.074;2022-10-16T02:19:56;100320.16;;;14.13;100.00
18504;BME280;9381;54.244;10.074;2022-10-16T02:25:15;100336.81;;;14.16;100.00
18504;BME280;9381;54.244;10.074;2022-10-16T02:30:31;100327.84;;;14.16;100.00
18504;BME280;9381;54.244;10.074;2022-10-16T02:35:33;100325.78;;;14.23;100.00
18504;BME280;9381;54.244;10.074;2022-10-16T02:40:34;100329.75;;;14.15;100.00
18504;BME280;9381;54.244;10.074;2022-10-16T02:45:35;100336.75;;;14.11;100.00
18504;BME280;9381;54.244;10.074;2022-10-16T02:50:36;100338.50;;;14.17;100.00
18504;BME280;9381;54.244;10.074;2022-10-16T02:55:36;100331.38;;;14.16;100.00
18504;BME280;9381;54.244;10.074;2022-10-16T03:00:36;100333.94;;;14.06;100.00
18504;BME280;9381;54.244;10.074;2022-10-16T03:05:36;100331.06;;;13.96;100.00
18504;BME280;9381;54.244;10.074;2022-10-16T03:10:37;100334.88;;;13.95;100.00
18504;BME280;9381;54.244;10.074;2022-10-16T03:15:37;100328.13;;;13.98;100.00
18504;BME280;9381;54.244;10.074;2022-10-16T03:20:37;100324.63;;;13.86;100.00
18504;BME280;9381;54.244;10.074;2022-10-16T03:25:37;100323.31;;;13.88;100.00
18504;BME280;9381;54.244;10.074;2022-10-16T03:30:38;100320.69;;;13.93;100.00
18504;BME280;9381;54.244;10.074;2022-10-16T03:35:39;100322.81;;;13.91;100.00
18504;BME280;9381;54.244;10.074;2022-10-16T03:40:39;100332.78;;;13.86;100.00
18504;BME280;9381;54.244;10.074;2022-10-16T03:45:40;100350.50;;;13.88;100.00
18504;BME280;9381;54.244;10.074;2022-10-16T03:50:40;100349.78;;;13.76;100.00
18504;BME280;9381;54.244;10.074;2022-10-16T03:55:42;100355.13;;;13.71;100.00
18504;BME280;9381;54.244;10.074;2022-10-16T04:00:44;100351.81;;;13.69;100.00
18504;BME280;9381;54.244;10.074;2022-10-16T04:05:44;100348.19;;;13.80;100.00
18504;BME280;9381;54.244;10.074;2022-10-16T04:10:45;100364.84;;;13.67;100.00
18504;BME280;9381;54.244;10.074;2022-10-16T04:15:45;100376.78;;;13.66;100.00
18504;BME280;9381;54.244;10.074;2022-10-16T04:20:46;100375.22;;;13.70;100.00
18504;BME280;9381;54.244;10.074;2022-10-16T04:25:46;100381.16;;;13.67;100.00
18504;BME280;9381;54.244;10.074;2022-10-16T04:30:46;100386.88;;;13.54;100.00
18504;BME280;9381;54.244;10.074;2022-10-16T04:35:47;100377.03;;;13.65;100.00
18504;BME280;9381;54.244;10.074;2022-10-16T04:40:47;100391.34;;;13.77;100.00
18504;BME280;9381;54.244;10.074;2022-10-16T04:45:47;100393.66;;;13.68;100.00
18504;BME280;9381;54.244;10.074;2022-10-16T04:50:47;100395.16;;;13.76;100.00
18504;BME280;9381;54.244;10.074;2022-10-16T04:55:48;100388.91;;;13.75;100.00
18504;BME280;9381;54.244;10.074;2022-10-16T05:00:48;100402.88;;;13.67;100.00
18504;BME280;9381;54.244;10.074;2022-10-16T05:05:48;100405.44;;;13.74;100.00
18504;BME280;9381;54.244;10.074;2022-10-16T05:10:48;100413.84;;;13.72;100.00
18504;BME280;9381;54.244;10.074;2022-10-16T05:15:49;100407.81;;;13.70;100.00
18504;BME280;9381;54.244;10.074;2022-10-16T05:20:49;100401.59;;;13.70;100.00
18504;BME280;9381;54.244;10.074;2022-10-16T05:25:54;100409.47;;;13.71;100.00
18504;BME280;9381;54.244;10.074;2022-10-16T05:30:56;100413.25;;;13.70;100.00
18504;BME280;9381;54.244;10.074;2022-10-16T05:35:56;100420.50;;;13.65;100.00
18504;BME280;9381;54.244;10.074;2022-10-16T05:40:56;100439.28;;;13.66;100.00
18504;BME280;9381;54.244;10.074;2022-10-16T05:46:03;100445.34;;;13.57;100.00
18504;BME280;9381;54.244;10.074;2022-10-16T05:51:06;100457.69;;;13.64;100.00
18504;BME280;9381;54.244;10.074;2022-10-16T05:56:09;100444.00;;;13.71;100.00
18504;BME280;9381;54.244;10.074;2022-10-16T06:01:12;100455.09;;;13.69;100.00
18504;BME280;9381;54.244;10.074;2022-10-16T06:06:15;100453.25;;;13.86;100.00
18504;BME280;9381;54.244;10.074;2022-10-16T06:11:24;100447.25;;;13.84;100.00
18504;BME280;9381;54.244;10.074;2022-10-16T06:16:25;100453.09;;;13.65;100.00
18504;BME280;9381;54.244;10.074;2022-10-16T06:21:27;100438.97;;;13.79;100.00
18504;BME280;9381;54.244;10.074;2022-10-16T06:26:29;100444.13;;;13.92;100.00
18504;BME280;9381;54.244;10.074;2022-10-16T06:31:30;100456.19;;;13.85;100.00
18504;BME280;9381;54.244;10.074;2022-10-16T06:36:33;100469.31;;;13.88;100.00
18504;BME280;9381;54.244;10.074;2022-10-16T06:41:33;100461.75;;;14.06;100.00
18504;BME280;9381;54.244;10.074;2022-10-16T06:46:34;100473.47;;;14.07;100.00
18504;BME280;9381;54.244;10.074;2022-10-16T06:51:34;100490.09;;;14.10;100.00
18504;BME280;9381;54.244;10.074;2022-10-16T06:56:36;100498.22;;;14.22;100.00
18504;BME280;9381;54.244;10.074;2022-10-16T07:01:36;100500.75;;;14.12;100.00
18504;BME280;9381;54.244;10.074;2022-10-16T07:06:36;100492.31;;;14.25;100.00
18504;BME280;9381;54.244;10.074;2022-10-16T07:11:39;100503.28;;;14.30;100.00
18504;BME280;9381;54.244;10.074;2022-10-16T07:16:39;100512.75;;;14.27;100.00
18504;BME280;9381;54.244;10.074;2022-10-16T07:21:40;100507.16;;;14.50;100.00
18504;BME280;9381;54.244;10.074;2022-10-16T07:26:42;100530.75;;;14.61;100.00
18504;BME280;9381;54.244;10.074;2022-10-16T07:31:43;100538.84;;;14.56;100.00
18504;BME280;9381;54.244;10.074;2022-10-16T07:36:44;100532.41;;;14.46;100.00
18504;BME280;9381;54.244;10.074;2022-10-16T07:41:44;100536.53;;;14.48;100.00
18504;BME280;9381;54.244;10.074;2022-10-16T07:46:44;100531.72;;;14.55;100.00
18504;BME280;9381;54.244;10.074;2022-10-16T07:51:45;100532.81;;;14.54;100.00
18504;BME280;9381;54.244;10.074;2022-10-16T07:56:45;100527.28;;;14.82;100.00
18504;BME280;9381;54.244;10.074;2022-10-16T08:01:45;100529.13;;;15.31;100.00
18504;BME280;9381;54.244;10.074;2022-10-16T08:06:45;100519.56;;;15.12;100.00
18504;BME280;9381;54.244;10.074;2022-10-16T08:11:46;100532.69;;;15.15;100.00
18504;BME280;9381;54.244;10.074;2022-10-16T08:16:46;100548.09;;;15.26;100.00
18504;BME280;9381;54.244;10.074;2022-10-16T08:21:47;100546.25;;;15.48;100.00
18504;BME280;9381;54.244;10.074;2022-10-16T08:26:47;100549.69;;;15.60;100.00
18504;BME280;9381;54.244;10.074;2022-10-16T08:31:48;100557.16;;;15.69;100.00
18504;BME280;9381;54.244;10.074;2022-10-16T08:36:48;100565.66;;;15.94;100.00
18504;BME280;9381;54.244;10.074;2022-10-16T08:42:10;100570.72;;;16.07;100.00
18504;BME280;9381;54.244;10.074;2022-10-16T08:47:23;100556.31;;;16.12;100.00
18504;BME280;9381;54.244;10.074;2022-10-16T08:52:34;100572.97;;;16.15;100.00
18504;BME280;9381;54.244;10.074;2022-10-16T08:57:35;100583.44;;;16.02;100.00
18504;BME280;9381;54.244;10.074;2022-10-16T09:02:45;100585.38;;;16.28;100.00
18504;BME280;9381;54.244;10.074;2022-10-16T09:08:08;100586.72;;;16.47;100.00
18504;BME280;9381;54.244;10.074;2022-10-16T09:24:16;100601.56;;;16.87;100.00
18504;BME280;9381;54.244;10.074;2022-10-16T09:29:19;100600.06;;;16.75;98.11
18504;BME280;9381;54.244;10.074;2022-10-16T09:34:29;100609.03;;;16.97;97.55
18504;BME280;9381;54.244;10.074;2022-10-16T09:39:30;100632.03;;;17.83;92.86
18504;BME280;9381;54.244;10.074;2022-10-16T09:44:47;100627.53;;;18.14;89.98
18504;BME280;9381;54.244;10.074;2022-10-16T09:49:58;100638.03;;;17.76;92.35
18504;BME280;9381;54.244;10.074;2022-10-16T09:55:13;100641.97;;;17.17;96.29
18504;BME280;9381;54.244;10.074;2022-10-16T10:00:16;100656.47;;;17.17;97.65
18504;BME280;9381;54.244;10.074;2022-10-16T10:05:22;100651.81;;;17.18;99.27
18504;BME280;9381;54.244;10.074;2022-10-16T10:10:28;100670.25;;;17.01;98.88
18504;BME280;9381;54.244;10.074;2022-10-16T10:15:34;100669.59;;;16.89;99.53
18504;BME280;9381;54.244;10.074;2022-10-16T10:20:36;100661.97;;;16.91;98.83
18504;BME280;9381;54.244;10.074;2022-10-16T10:31:17;100665.25;;;19.83;82.28
18504;BME280;9381;54.244;10.074;2022-10-16T10:36:28;100672.88;;;20.01;79.63
18504;BME280;9381;54.244;10.074;2022-10-16T10:46:34;100689.97;;;19.73;81.07
18504;BME280;9381;54.244;10.074;2022-10-16T10:51:49;100684.50;;;19.68;79.35
18504;BME280;9381;54.244;10.074;2022-10-16T10:57:08;100700.44;;;19.41;79.70
18504;BME280;9381;54.244;10.074;2022-10-16T11:07:36;100697.69;;;21.03;75.92
18504;BME280;9381;54.244;10.074;2022-10-16T11:12:44;100709.75;;;19.45;78.95
18504;BME280;9381;54.244;10.074;2022-10-16T11:17:55;100723.78;;;18.42;81.72
18504;BME280;9381;54.244;10.074;2022-10-16T11:23:07;100726.19;;;18.34;83.60
18504;BME280;9381;54.244;10.074;2022-10-16T11:33:27;100755.16;;;17.79;83.83
18504;BME280;9381;54.244;10.074;2022-10-16T11:38:52;100753.56;;;17.88;83.39
18504;BME280;9381;54.244;10.074;2022-10-16T11:49:33;100766.78;;;19.18;76.37
18504;BME280;9381;54.244;10.074;2022-10-16T11:54:39;100763.00;;;19.59;76.21
18504;BME280;9381;54.244;10.074;2022-10-16T12:10:29;100786.69;;;18.89;75.97
18504;BME280;9381;54.244;10.074;2022-10-16T12:15:37;100794.56;;;18.70;75.13
18504;BME280;9381;54.244;10.074;2022-10-16T12:20:37;100812.03;;;18.54;75.75
18504;BME280;9381;54.244;10.074;2022-10-16T12:25:39;100818.41;;;18.28;78.00
18504;BME280;9381;54.244;10.074;2022-10-16T12:30:54;100831.69;;;18.05;78.21
18504;BME280;9381;54.244;10.074;2022-10-16T12:35:56;100833.34;;;18.42;78.24
18504;BME280;9381;54.244;10.074;2022-10-16T12:41:01;100838.97;;;18.72;75.56
18504;BME280;9381;54.244;10.074;2022-10-16T12:56:56;100860.22;;;19.12;76.04
18504;BME280;9381;54.244;10.074;2022-10-16T13:02:19;100867.28;;;19.79;74.36
18504;BME280;9381;54.244;10.074;2022-10-16T13:18:11;100890.28;;;19.63;72.66
18504;BME280;9381;54.244;10.074;2022-10-16T13:28:37;100884.06;;;19.06;72.57
18504;BME280;9381;54.244;10.074;2022-10-16T13:33:43;100905.91;;;18.91;72.12
18504;BME280;9381;54.244;10.074;2022-10-16T13:38:45;100924.81;;;18.46;72.46
18504;BME280;9381;54.244;10.074;2022-10-16T13:43:50;100930.06;;;18.48;73.04
18504;BME280;9381;54.244;10.074;2022-10-16T13:49:24;100955.78;;;18.20;73.88
18504;BME280;9381;54.244;10.074;2022-10-16T13:54:26;100962.03;;;18.11;74.87
18504;BME280;9381;54.244;10.074;2022-10-16T13:59:36;100971.00;;;18.33;75.66
18504;BME280;9381;54.244;10.074;2022-10-16T14:04:39;100973.50;;;18.34;76.05
18504;BME280;9381;54.244;10.074;2022-10-16T14:09:39;100977.22;;;18.23;76.90
18504;BME280;9381;54.244;10.074;2022-10-16T14:14:45;100983.94;;;17.85;78.70
18504;BME280;9381;54.244;10.074;2022-10-16T14:19:50;100983.53;;;17.71;79.59
18504;BME280;9381;54.244;10.074;2022-10-16T14:24:52;100987.69;;;17.79;78.32
18504;BME280;9381;54.244;10.074;2022-10-16T14:30:11;100993.91;;;17.95;77.97
18504;BME280;9381;54.244;10.074;2022-10-16T14:35:27;100993.31;;;17.67;79.54
18504;BME280;9381;54.244;10.074;2022-10-16T14:40:30;100996.00;;;17.62;79.25
18504;BME280;9381;54.244;10.074;2022-10-16T14:45:34;101018.69;;;17.41;79.74
18504;BME280;9381;54.244;10.074;2022-10-16T14:50:35;101018.66;;;17.20;81.65
18504;BME280;9381;54.244;10.074;2022-10-16T14:55:36;101026.59;;;17.21;81.80
18504;BME280;9381;54.244;10.074;2022-10-16T15:00:37;101036.66;;;17.16;82.63
18504;BME280;9381;54.244;10.074;2022-10-16T15:05:37;101047.81;;;17.14;82.91
18504;BME280;9381;54.244;10.074;2022-10-16T15:10:41;101056.44;;;17.23;82.91
18504;BME280;9381;54.244;10.074;2022-10-16T15:15:45;101073.91;;;17.22;83.02
18504;BME280;9381;54.244;10.074;2022-10-16T15:20:48;101067.84;;;17.20;83.30
18504;BME280;9381;54.244;10.074;2022-10-16T15:25:54;101073.03;;;17.00;83.39
18504;BME280;9381;54.244;10.074;2022-10-16T15:30:55;101094.31;;;16.81;83.98
18504;BME280;9381;54.244;10.074;2022-10-16T15:35:56;101098.94;;;16.81;84.48
18504;BME280;9381;54.244;10.074;2022-10-16T15:40:57;101099.44;;;16.78;83.87
18504;BME280;9381;54.244;10.074;2022-10-16T15:46:03;101104.13;;;16.49;84.38
18504;BME280;9381;54.244;10.074;2022-10-16T15:51:05;101108.59;;;16.39;83.89
18504;BME280;9381;54.244;10.074;2022-10-16T15:56:07;101121.72;;;16.14;84.66
18504;BME280;9381;54.244;10.074;2022-10-16T16:01:08;101125.22;;;15.98;85.69
18504;BME280;9381;54.244;10.074;2022-10-16T16:06:11;101128.66;;;16.05;85.80
18504;BME280;9381;54.244;10.074;2022-10-16T16:11:16;101139.72;;;15.87;86.76
18504;BME280;9381;54.244;10.074;2022-10-16T16:16:17;101153.50;;;15.80;86.94
18504;BME280;9381;54.244;10.074;2022-10-16T16:21:17;101170.69;;;15.81;87.25
18504;BME280;9381;54.244;10.074;2022-10-16T16:26:28;101182.22;;;15.60;88.92
18504;BME280;9381;54.244;10.074;2022-10-16T16:31:36;101185.16;;;15.70;88.98
18504;BME280;9381;54.244;10.074;2022-10-16T16:36:36;101196.22;;;15.63;90.03
18504;BME280;9381;54.244;10.074;2022-10-16T16:41:36;101209.13;;;15.45;90.78
18504;BME280;9381;54.244;10.074;2022-10-16T16:46:37;101216.22;;;15.46;91.31
18504;BME280;9381;54.244;10.074;2022-10-16T16:51:39;101232.06;;;15.26;92.63
18504;BME280;9381;54.244;10.074;2022-10-16T16:56:41;101243.81;;;15.26;92.80
18504;BME280;9381;54.244;10.074;2022-10-16T17:01:43;101243.88;;;15.08;93.90
18504;BME280;9381;54.244;10.074;2022-10-16T17:06:43;101252.97;;;15.02;94.16
18504;BME280;9381;54.244;10.074;2022-10-16T17:11:43;101261.47;;;14.94;95.26
18504;BME280;9381;54.244;10.074;2022-10-16T17:16:44;101259.94;;;14.87;95.76
18504;BME280;9381;54.244;10.074;2022-10-16T17:21:49;101268.31;;;14.85;96.04
18504;BME280;9381;54.244;10.074;2022-10-16T17:26:49;101281.13;;;14.85;96.13
18504;BME280;9381;54.244;10.074;2022-10-16T17:31:49;101278.41;;;14.85;95.67
18504;BME280;9381;54.244;10.074;2022-10-16T17:36:50;101293.13;;;14.66;97.34
18504;BME280;9381;54.244;10.074;2022-10-16T17:41:50;101305.13;;;14.59;98.20
18504;BME280;9381;54.244;10.074;2022-10-16T17:46:52;101306.88;;;14.53;98.10
18504;BME280;9381;54.244;10.074;2022-10-16T17:51:53;101316.56;;;14.49;98.71
18504;BME280;9381;54.244;10.074;2022-10-16T17:56:53;101319.97;;;14.45;98.32
18504;BME280;9381;54.244;10.074;2022-10-16T18:01:53;101324.44;;;14.39;99.42
18504;BME280;9381;54.244;10.074;2022-10-16T18:06:53;101342.94;;;14.31;100.00
18504;BME280;9381;54.244;10.074;2022-10-16T18:11:59;101349.91;;;14.27;100.00
18504;BME280;9381;54.244;10.074;2022-10-16T18:16:59;101357.41;;;14.31;99.64
18504;BME280;9381;54.244;10.074;2022-10-16T18:22:00;101366.75;;;14.17;99.58
18504;BME280;9381;54.244;10.074;2022-10-16T18:27:00;101366.00;;;14.04;99.64
18504;BME280;9381;54.244;10.074;2022-10-16T18:32:00;101381.19;;;13.93;99.52
18504;BME280;9381;54.244;10.074;2022-10-16T18:37:01;101382.94;;;13.81;100.00
18504;BME280;9381;54.244;10.074;2022-10-16T18:42:01;101393.88;;;13.75;100.00
18504;BME280;9381;54.244;10.074;2022-10-16T18:47:01;101393.47;;;13.71;100.00
18504;BME280;9381;54.244;10.074;2022-10-16T18:52:02;101404.19;;;13.66;100.00
18504;BME280;9381;54.244;10.074;2022-10-16T18:57:02;101412.13;;;13.68;100.00
18504;BME280;9381;54.244;10.074;2022-10-16T19:02:03;101414.88;;;13.61;100.00
18504;BME280;9381;54.244;10.074;2022-10-16T19:07:03;101417.22;;;13.58;100.00
18504;BME280;9381;54.244;10.074;2022-10-16T19:12:04;101417.59;;;13.61;100.00
18504;BME280;9381;54.244;10.074;2022-10-16T19:17:04;101421.19;;;13.55;100.00
18504;BME280;9381;54.244;10.074;2022-10-16T19:22:04;101428.34;;;13.50;100.00
18504;BME280;9381;54.244;10.074;2022-10-16T19:27:13;101434.44;;;13.45;100.00
18504;BME280;9381;54.244;10.074;2022-10-16T19:32:13;101443.88;;;13.36;100.00
18504;BME280;9381;54.244;10.074;2022-10-16T19:37:13;101438.06;;;13.33;100.00
18504;BME280;9381;54.244;10.074;2022-10-16T19:42:13;101437.69;;;13.29;100.00
18504;BME280;9381;54.244;10.074;2022-10-16T19:47:14;101438.53;;;13.23;100.00
18504;BME280;9381;54.244;10.074;2022-10-16T19:52:14;101452.56;;;13.20;100.00
18504;BME280;9381;54.244;10.074;2022-10-16T19:57:16;101449.00;;;13.20;100.00
18504;BME280;9381;54.244;10.074;2022-10-16T20:02:16;101449.19;;;13.18;100.00
18504;BME280;9381;54.244;10.074;2022-10-16T20:07:16;101455.28;;;13.20;100.00
18504;BME280;9381;54.244;10.074;2022-10-16T20:12:16;101452.34;;;13.15;100.00
18504;BME280;9381;54.244;10.074;2022-10-16T20:17:17;101471.16;;;13.17;100.00
18504;BME280;9381;54.244;10.074;2022-10-16T20:22:17;101472.88;;;13.11;100.00
18504;BME280;9381;54.244;10.074;2022-10-16T20:27:17;101473.47;;;13.13;100.00
18504;BME280;9381;54.244;10.074;2022-10-16T20:32:18;101487.50;;;13.10;100.00
18504;BME280;9381;54.244;10.074;2022-10-16T20:37:18;101470.78;;;13.07;100.00
18504;BME280;9381;54.244;10.074;2022-10-16T20:42:18;101472.06;;;13.04;100.00
18504;BME280;9381;54.244;10.074;2022-10-16T20:47:18;101480.41;;;13.03;100.00
18504;BME280;9381;54.244;10.074;2022-10-16T20:52:19;101486.69;;;13.03;100.00
18504;BME280;9381;54.244;10.074;2022-10-16T20:57:19;101487.09;;;13.00;100.00
18504;BME280;9381;54.244;10.074;2022-10-16T21:02:20;101492.13;;;13.03;100.00
18504;BME280;9381;54.244;10.074;2022-10-16T21:07:21;101496.69;;;13.03;100.00
18504;BME280;9381;54.244;10.074;2022-10-16T21:12:22;101505.06;;;13.01;100.00
18504;BME280;9381;54.244;10.074;2022-10-16T21:17:23;101514.66;;;13.04;100.00
18504;BME280;9381;54.244;10.074;2022-10-16T21:22:27;101510.50;;;13.01;100.00
18504;BME280;9381;54.244;10.074;2022-10-16T21:27:28;101510.09;;;12.98;100.00
18504;BME280;9381;54.244;10.074;2022-10-16T21:32:28;101523.88;;;12.96;100.00
18504;BME280;9381;54.244;10.074;2022-10-16T21:37:28;101534.31;;;12.99;100.00
18504;BME280;9381;54.244;10.074;2022-10-16T21:42:29;101527.59;;;13.08;100.00
18504;BME280;9381;54.244;10.074;2022-10-16T21:47:29;101535.34;;;13.11;100.00
18504;BME280;9381;54.244;10.074;2022-10-16T21:52:29;101552.69;;;13.10;100.00
18504;BME280;9381;54.244;10.074;2022-10-16T21:57:30;101537.84;;;13.06;100.00
18504;BME280;9381;54.244;10.074;2022-10-16T22:02:30;101550.59;;;13.06;100.00
18504;BME280;9381;54.244;10.074;2022-10-16T22:07:30;101555.41;;;13.04;100.00
18504;BME280;9381;54.244;10.074;2022-10-16T22:12:31;101548.13;;;12.98;100.00
18504;BME280;9381;54.244;10.074;2022-10-16T22:17:31;101535.56;;;13.03;100.00
18504;BME280;9381;54.244;10.074;2022-10-16T22:22:31;101526.38;;;13.04;100.00
18504;BME280;9381;54.244;10.074;2022-10-16T22:27:31;101515.50;;;13.04;100.00
18504;BME280;9381;54.244;10.074;2022-10-16T22:32:32;101531.81;;;12.98;100.00
18504;BME280;9381;54.244;10.074;2022-10-16T22:37:32;101550.59;;;12.86;100.00
18504;BME280;9381;54.244;10.074;2022-10-16T22:42:32;101551.25;;;12.82;100.00
18504;BME280;9381;54.244;10.074;2022-10-16T22:47:33;101548.53;;;12.82;100.00
18504;BME280;9381;54.244;10.074;2022-10-16T22:52:33;101535.78;;;12.89;100.00
18504;BME280;9381;54.244;10.074;2022-10-16T22:57:34;101525.56;;;12.84;100.00
18504;BME280;9381;54.244;10.074;2022-10-16T23:02:34;101530.97;;;12.84;100.00
18504;BME280;9381;54.244;10.074;2022-10-16T23:07:35;101539.75;;;12.86;100.00
18504;BME280;9381;54.244;10.074;2022-10-16T23:12:35;101532.63;;;12.92;100.00
18504;BME280;9381;54.244;10.074;2022-10-16T23:17:35;101551.88;;;12.97;100.00
18504;BME280;9381;54.244;10.074;2022-10-16T23:22:36;101547.69;;;12.94;100.00
18504;BME280;9381;54.244;10.074;2022-10-16T23:27:36;101524.69;;;13.03;100.00
18504;BME280;9381;54.244;10.074;2022-10-16T23:32:36;101526.94;;;13.13;100.00
18504;BME280;9381;54.244;10.074;2022-10-16T23:37:36;101498.78;;;13.01;100.00
18504;BME280;9381;54.244;10.074;2022-10-16T23:42:37;101512.56;;;12.99;100.00
18504;BME280;9381;54.244;10.074;2022-10-16T23:47:37;101522.19;;;12.89;100.00
18504;BME280;9381;54.244;10.074;2022-10-16T23:52:37;101520.97;;;12.78;100.00
18504;BME280;9381;54.244;10.074;2022-10-16T23:57:37;101522.22;;;12.69;100.00
